Terminal Aerodrome Forecast
Issued by NWS Twin Cities, MN

Home | Current Version | Previous Version | Text Only | Print | Product List | Glossary On
Versions: 1 2 3 4 5 6 7 8 9 10 11 12 13 14 15 16 17
000
FTUS43 KMPX 012106 AAA
TAFSTC
TAF AMD
KSTC 012106Z 0121/0218 21008KT P6SM VCSH FEW060 BKN080
     FM020000 19004KT P6SM VCTS FEW060CB BKN090
     FM020400 20003KT P6SM SCT100
     FM021600 32012G20KT P6SM SCT120=

USA.gov is the U.S. government's official web portal to all federal, state and local government web resources and services.